| time (UTC) | temp F | wind direction | speed MPH | gust MPH | rain 1hr in | rain 24hr in | rain mn in | humidity % | barometer mb |
| 20260509223008 | 79 | 326 | 0.0 | 6.0 | 0.00 | 0.00 | 0.00 | 67 | 1008.8 |
| 20260509221510 | 81 | 348 | 4.0 | 11.0 | 0.00 | 0.00 | 0.00 | 71 | 1009.2 |
| 20260509220014 | 85 | 359 | 2.0 | 5.0 | 0.00 | 0.00 | 0.00 | 72 | 1008.3 |
| 20260509214505 | 85 | 342 | 0.0 | 4.0 | 0.00 | 0.00 | 0.00 | 71 | 1008.3 |
| 20260509213004 | 88 | 340 | 2.0 | 6.0 | 0.00 | 0.00 | 0.00 | 67 | 1008.7 |
| 20260509211512 | 90 | 356 | 0.0 | 0.0 | 0.00 | 0.00 | 0.00 | 60 | 1008.5 |
| 20260509210012 | 92 | 282 | 0.0 | 2.0 | 0.00 | 0.00 | 0.00 | 58 | 1008.6 |
| 20260509204517 | 91 | 289 | 0.0 | 7.0 | 0.00 | 0.00 | 0.00 | 59 | 1008.8 |
| 20260509203005 | 92 | 210 | 0.0 | 5.0 | 0.00 | 0.00 | 0.00 | 59 | 1009.0 |
| 20260509201507 | 91 | 239 | 0.0 | 6.0 | 0.00 | 0.00 | 0.00 | 63 | 1009.2 |
| 20260509200008 | 88 | 91 | 2.0 | 6.0 | 0.00 | 0.00 | 0.00 | 65 | 1009.2 |
| 20260509194513 | 92 | 281 | 0.0 | 6.0 | 0.00 | 0.00 | 0.00 | 59 | 1009.4 |
| 20260509193018 | 90 | 2 | 0.0 | 7.0 | 0.00 | 0.00 | 0.00 | 63 | 1009.6 |
| 20260509191504 | 91 | 339 | 2.0 | 5.0 | 0.00 | 0.00 | 0.00 | 63 | 1009.8 |
| 20260509190008 | 89 | 311 | 1.0 | 4.0 | 0.00 | 0.00 | 0.00 | 67 | 1010.0 |
| 20260509184517 | 87 | 264 | 0.0 | 7.0 | 0.00 | 0.00 | 0.00 | 67 | 1010.1 |
| 20260509183016 | 86 | 268 | 2.0 | 6.0 | 0.00 | 0.00 | 0.00 | 70 | 1010.3 |
| 20260509181517 | 86 | 236 | 3.0 | 9.0 | 0.00 | 0.00 | 0.00 | 69 | 1010.4 |
| 20260509180004 | 86 | 213 | 3.0 | 7.0 | 0.00 | 0.00 | 0.00 | 72 | 1010.7 |
| 20260509174508 | 85 | 273 | 4.0 | 8.0 | 0.00 | 0.00 | 0.00 | 73 | 1010.9 |
| 20260509173012 | 84 | 127 | 3.0 | 9.0 | 0.00 | 0.00 | 0.00 | 74 | 1011.1 |
| 20260509171524 | 83 | 159 | 2.0 | 6.0 | 0.00 | 0.00 | 0.00 | 76 | 1011.2 |
| 20260509170028 | 82 | 239 | 2.0 | 5.0 | 0.00 | 0.00 | 0.00 | 75 | 1011.4 |
| 20260509164526 | 82 | 190 | 4.0 | 6.0 | 0.00 | 0.00 | 0.00 | 76 | 1011.4 |
| 20260509163010 | 82 | 136 | 2.0 | 5.0 | 0.00 | 0.00 | 0.00 | 78 | 1011.3 |
| 20260509151514 | 79 | 278 | 1.0 | 3.0 | 0.00 | 0.00 | 0.00 | 83 | 1011.2 |
| 20260509140013 | 74 | 210 | 1.0 | 3.0 | 0.00 | 0.00 | 0.00 | 92 | 1010.4 |
| 20260509134517 | 74 | 150 | 0.0 | 3.0 | 0.00 | 0.00 | 0.00 | 92 | 1010.6 |
| 20260509133021 | 74 | 172 | 2.0 | 4.0 | 0.00 | 0.00 | 0.00 | 93 | 1011.1 |
| 20260509131535 | 73 | 121 | 1.0 | 4.0 | 0.00 | 0.00 | 0.00 | 93 | 1010.8 |
| 20260509130031 | 73 | 101 | 4.0 | 10.0 | 0.00 | 0.00 | 0.00 | 92 | 1010.7 |
| 20260509124520 | 73 | 207 | 1.0 | 4.0 | 0.00 | 0.00 | 0.00 | 93 | 1011.0 |
| 20260509121526 | 73 | 87 | 0.0 | 0.0 | 0.00 | 0.00 | 0.00 | 93 | 1011.2 |
| 20260509120025 | 73 | 87 | 0.0 | 0.0 | 0.00 | 0.00 | 0.00 | 92 | 1011.2 |
| 20260509114529 | 73 | 1 | 0.0 | 0.0 | 0.00 | 0.00 | 0.00 | 92 | 1010.8 |
| 20260509113015 | 73 | 360 | 0.0 | 2.0 | 0.00 | 0.00 | 0.00 | 92 | 1010.9 |
| 20260509111522 | 73 | 360 | 0.0 | 0.0 | 0.00 | 0.00 | 0.00 | 92 | 1010.8 |
| 20260509110024 | 73 | 360 | 0.0 | 0.0 | 0.00 | 0.00 | 0.00 | 92 | 1010.6 |
| 20260509104510 | 73 | 316 | 0.0 | 0.0 | 0.00 | 0.00 | 0.00 | 92 | 1011.0 |
| 20260509103015 | 73 | 181 | 0.0 | 0.0 | 0.00 | 0.00 | 0.00 | 92 | 1010.6 |
| 20260509101533 | 73 | 149 | 0.0 | 5.0 | 0.00 | 0.00 | 0.00 | 92 | 1009.9 |
| 20260509100024 | 73 | 150 | 3.0 | 5.0 | 0.00 | 0.00 | 0.00 | 92 | 1009.9 |
| 20260509094525 | 73 | 346 | 0.0 | 1.0 | 0.00 | 0.00 | 0.00 | 92 | 1010.4 |
| 20260509093012 | 73 | 6 | 0.0 | 3.0 | 0.00 | 0.00 | 0.00 | 92 | 1010.4 |
| 20260509091520 | 73 | 65 | 0.0 | 3.0 | 0.00 | 0.00 | 0.00 | 92 | 1010.2 |
| 20260509090021 | 73 | 60 | 0.0 | 0.0 | 0.00 | 0.00 | 0.00 | 92 | 1010.2 |
| 20260509084523 | 73 | 229 | 0.0 | 0.0 | 0.00 | 0.00 | 0.00 | 92 | 1010.4 |
| 20260509083025 | 73 | 229 | 0.0 | 0.0 | 0.00 | 0.00 | 0.00 | 92 | 1010.5 |
| 20260509081514 | 73 | 229 | 0.0 | 0.0 | 0.00 | 0.00 | 0.00 | 92 | 1010.6 |
| 20260509080019 | 73 | 200 | 0.0 | 3.0 | 0.00 | 0.00 | 0.00 | 92 | 1010.6 |
| 20260509074522 | 73 | 123 | 0.0 | 5.0 | 0.00 | 0.00 | 0.00 | 92 | 1010.3 |
| 20260509073025 | 73 | 169 | 3.0 | 5.0 | 0.00 | 0.00 | 0.00 | 92 | 1010.3 |
| 20260509071526 | 72 | 210 | 0.0 | 3.0 | 0.00 | 0.00 | 0.00 | 91 | 1010.4 |
| 20260509070018 | 72 | 260 | 0.0 | 4.0 | 0.00 | 0.00 | 0.00 | 91 | 1010.4 |
| 20260509064520 | 72 | 122 | 2.0 | 6.0 | 0.00 | 0.00 | 0.00 | 91 | 1010.0 |
| 20260509063021 | 72 | 110 | 2.0 | 5.0 | 0.00 | 0.00 | 0.00 | 91 | 1010.0 |
| 20260509061528 | 72 | 134 | 3.0 | 6.0 | 0.00 | 0.00 | 0.00 | 90 | 1010.4 |
| 20260509060025 | 72 | 137 | 3.0 | 5.0 | 0.00 | 0.00 | 0.00 | 90 | 1010.7 |
| 20260509054516 | 72 | 121 | 2.0 | 8.0 | 0.00 | 0.00 | 0.00 | 90 | 1010.9 |
| 20260509053020 | 73 | 150 | 2.0 | 6.0 | 0.00 | 0.00 | 0.00 | 89 | 1010.8 |
| 20260509051533 | 73 | 152 | 3.0 | 6.0 | 0.00 | 0.00 | 0.00 | 89 | 1010.9 |
| 20260509050028 | 73 | 191 | 3.0 | 7.0 | 0.00 | 0.00 | 0.00 | 89 | 1010.9 |
| 20260509044526 | 73 | 117 | 1.0 | 9.0 | 0.00 | 0.00 | 0.00 | 89 | 1010.8 |
| 20260509043017 | 73 | 80 | 5.0 | 9.0 | 0.00 | 0.00 | 0.00 | 88 | 1010.8 |
| 20260509041521 | 73 | 146 | 4.0 | 7.0 | 0.00 | 0.00 | 0.00 | 88 | 1010.7 |
| 20260509040023 | 73 | 127 | 3.0 | 6.0 | 0.00 | 0.00 | 0.00 | 88 | 1010.7 |
| 20260509034541 | 73 | 176 | 2.0 | 6.0 | 0.00 | 0.00 | 0.00 | 88 | 1010.6 |
| 20260509033025 | 73 | 136 | 1.0 | 5.0 | 0.00 | 0.00 | 0.00 | 88 | 1010.6 |
| 20260509031518 | 73 | 123 | 0.0 | 4.0 | 0.00 | 0.00 | 0.00 | 87 | 1010.5 |
| 20260509030022 | 73 | 92 | 2.0 | 9.0 | 0.00 | 0.00 | 0.00 | 87 | 1010.3 |
| 20260509024530 | 73 | 115 | 4.0 | 8.0 | 0.00 | 0.00 | 0.00 | 87 | 1010.2 |
| 20260509023031 | 74 | 56 | 4.0 | 10.0 | 0.00 | 0.00 | 0.00 | 87 | 1010.1 |
| 20260509021527 | 74 | 120 | 4.0 | 7.0 | 0.00 | 0.00 | 0.00 | 87 | 1009.9 |
| 20260509020004 | 74 | 126 | 2.0 | 9.0 | 0.00 | 0.00 | 0.00 | 87 | 1009.8 |
| 20260509014505 | 74 | 167 | 1.0 | 6.0 | 0.00 | 0.00 | 0.00 | 87 | 1009.6 |
| 20260509013009 | 74 | 100 | 2.0 | 9.0 | 0.00 | 0.00 | 0.00 | 86 | 1009.5 |
| 20260509011515 | 74 | 131 | 3.0 | 9.0 | 0.00 | 0.00 | 0.00 | 86 | 1009.6 |
| 20260509010002 | 75 | 63 | 2.0 | 8.0 | 0.00 | 0.00 | 0.00 | 85 | 1009.4 |
| 20260509004503 | 75 | 107 | 5.0 | 9.0 | 0.00 | 0.00 | 0.00 | 85 | 1009.4 |
| 20260509003005 | 75 | 145 | 0.0 | 4.0 | 0.00 | 0.00 | 0.00 | 85 | 1009.3 |
| 20260509001509 | 76 | 131 | 3.0 | 9.0 | 0.00 | 0.00 | 0.00 | 84 | 1009.2 |
| 20260509000013 | 76 | 82 | 6.0 | 9.0 | 0.00 | 0.00 | 0.00 | 84 | 1009.3 |
| 20260508234503 | 77 | 63 | 2.0 | 8.0 | 0.00 | 0.00 | 0.00 | 83 | 1009.3 |
| 20260508233004 | 77 | 158 | 3.0 | 10.0 | 0.00 | 0.00 | 0.00 | 82 | 1009.3 |
| 20260508231508 | 78 | 134 | 4.0 | 11.0 | 0.00 | 0.00 | 0.00 | 81 | 1009.2 |
| 20260508230013 | 79 | 84 | 4.0 | 8.0 | 0.00 | 0.00 | 0.00 | 80 | 1009.1 |
| 20260508224515 | 79 | 141 | 4.0 | 11.0 | 0.00 | 0.00 | 0.00 | 80 | 1009.2 |